sensor_id;sensor_type;location;lat;lon;timestamp;temperature;humidity
48376;DHT22;34178;50.904;11.560;2023-08-21T00:01:28;20.40;99.90
48376;DHT22;34178;50.904;11.560;2023-08-21T00:03:53;20.40;99.90
48376;DHT22;34178;50.904;11.560;2023-08-21T00:06:19;20.30;99.90
48376;DHT22;34178;50.904;11.560;2023-08-21T00:08:45;20.30;99.90
48376;DHT22;34178;50.904;11.560;2023-08-21T00:11:10;20.30;99.90
48376;DHT22;34178;50.904;11.560;2023-08-21T00:13:36;20.20;99.90
48376;DHT22;34178;50.904;11.560;2023-08-21T00:16:01;20.20;99.90
48376;DHT22;34178;50.904;11.560;2023-08-21T00:18:27;20.20;99.90
48376;DHT22;34178;50.904;11.560;2023-08-21T00:20:53;20.20;99.90
48376;DHT22;34178;50.904;11.560;2023-08-21T00:23:18;20.20;99.90
48376;DHT22;34178;50.904;11.560;2023-08-21T00:25:47;20.10;99.90
48376;DHT22;34178;50.904;11.560;2023-08-21T00:28:13;20.10;99.90
48376;DHT22;34178;50.904;11.560;2023-08-21T00:30:39;20.20;99.90
48376;DHT22;34178;50.904;11.560;2023-08-21T00:33:05;20.20;99.90
48376;DHT22;34178;50.904;11.560;2023-08-21T00:35:31;20.10;99.90
48376;DHT22;34178;50.904;11.560;2023-08-21T00:37:57;20.10;99.90
48376;DHT22;34178;50.904;11.560;2023-08-21T00:40:22;20.10;99.90
48376;DHT22;34178;50.904;11.560;2023-08-21T00:42:48;20.00;99.90
48376;DHT22;34178;50.904;11.560;2023-08-21T00:45:14;20.10;99.90
48376;DHT22;34178;50.904;11.560;2023-08-21T00:47:39;20.10;99.90
48376;DHT22;34178;50.904;11.560;2023-08-21T00:50:07;20.10;99.90
48376;DHT22;34178;50.904;11.560;2023-08-21T00:52:34;20.00;99.90
48376;DHT22;34178;50.904;11.560;2023-08-21T00:55:00;20.00;99.90
48376;DHT22;34178;50.904;11.560;2023-08-21T00:57:26;19.90;99.90
48376;DHT22;34178;50.904;11.560;2023-08-21T00:59:52;19.90;99.90
48376;DHT22;34178;50.904;11.560;2023-08-21T01:02:18;19.90;99.90
48376;DHT22;34178;50.904;11.560;2023-08-21T01:04:44;19.90;99.90
48376;DHT22;34178;50.904;11.560;2023-08-21T01:07:10;19.90;99.90
48376;DHT22;34178;50.904;11.560;2023-08-21T01:09:39;19.80;99.90
48376;DHT22;34178;50.904;11.560;2023-08-21T01:12:25;19.80;99.90
48376;DHT22;34178;50.904;11.560;2023-08-21T01:14:58;19.80;99.90
48376;DHT22;34178;50.904;11.560;2023-08-21T01:17:24;19.80;99.90
48376;DHT22;34178;50.904;11.560;2023-08-21T01:19:52;19.80;99.90
48376;DHT22;34178;50.904;11.560;2023-08-21T01:22:18;19.70;99.90
48376;DHT22;34178;50.904;11.560;2023-08-21T01:24:43;19.70;99.90
48376;DHT22;34178;50.904;11.560;2023-08-21T01:27:10;19.70;99.90
48376;DHT22;34178;50.904;11.560;2023-08-21T01:29:37;19.70;99.90
48376;DHT22;34178;50.904;11.560;2023-08-21T01:34:44;19.70;99.90
48376;DHT22;34178;50.904;11.560;2023-08-21T01:37:10;19.70;99.90
48376;DHT22;34178;50.904;11.560;2023-08-21T01:39:36;19.60;99.90
48376;DHT22;34178;50.904;11.560;2023-08-21T01:42:02;19.60;99.90
48376;DHT22;34178;50.904;11.560;2023-08-21T01:44:28;19.60;99.90
48376;DHT22;34178;50.904;11.560;2023-08-21T01:46:53;19.60;99.90
48376;DHT22;34178;50.904;11.560;2023-08-21T01:49:19;19.50;99.90
48376;DHT22;34178;50.904;11.560;2023-08-21T01:51:45;19.50;99.90
48376;DHT22;34178;50.904;11.560;2023-08-21T01:54:11;19.50;99.90
48376;DHT22;34178;50.904;11.560;2023-08-21T01:56:37;19.50;99.90
48376;DHT22;34178;50.904;11.560;2023-08-21T01:59:04;19.50;99.90
48376;DHT22;34178;50.904;11.560;2023-08-21T02:01:31;19.50;99.90
48376;DHT22;34178;50.904;11.560;2023-08-21T02:03:57;19.50;99.90
48376;DHT22;34178;50.904;11.560;2023-08-21T02:06:23;19.50;99.90
48376;DHT22;34178;50.904;11.560;2023-08-21T02:08:48;19.50;99.90
48376;DHT22;34178;50.904;11.560;2023-08-21T02:11:14;19.50;99.90
48376;DHT22;34178;50.904;11.560;2023-08-21T02:13:40;19.50;99.90
48376;DHT22;34178;50.904;11.560;2023-08-21T02:16:05;19.60;99.90
48376;DHT22;34178;50.904;11.560;2023-08-21T02:18:31;19.50;99.90
48376;DHT22;34178;50.904;11.560;2023-08-21T02:20:57;19.50;99.90
48376;DHT22;34178;50.904;11.560;2023-08-21T02:23:22;19.50;99.90
48376;DHT22;34178;50.904;11.560;2023-08-21T02:25:49;19.40;99.90
48376;DHT22;34178;50.904;11.560;2023-08-21T02:28:15;19.40;99.90
48376;DHT22;34178;50.904;11.560;2023-08-21T02:30:41;19.40;99.90
48376;DHT22;34178;50.904;11.560;2023-08-21T02:33:07;19.40;99.90
48376;DHT22;34178;50.904;11.560;2023-08-21T02:35:33;19.50;99.90
48376;DHT22;34178;50.904;11.560;2023-08-21T02:37:58;19.50;99.90
48376;DHT22;34178;50.904;11.560;2023-08-21T02:43:46;19.50;99.90
48376;DHT22;34178;50.904;11.560;2023-08-21T02:46:12;19.50;99.90
48376;DHT22;34178;50.904;11.560;2023-08-21T02:48:37;19.60;99.90
48376;DHT22;34178;50.904;11.560;2023-08-21T02:51:03;19.60;99.90
48376;DHT22;34178;50.904;11.560;2023-08-21T02:53:28;19.50;99.90
48376;DHT22;34178;50.904;11.560;2023-08-21T02:55:55;19.40;99.90
48376;DHT22;34178;50.904;11.560;2023-08-21T02:58:20;19.40;99.90
48376;DHT22;34178;50.904;11.560;2023-08-21T03:00:46;19.40;99.90
48376;DHT22;34178;50.904;11.560;2023-08-21T03:03:12;19.30;99.90
48376;DHT22;34178;50.904;11.560;2023-08-21T03:05:37;19.20;99.90
48376;DHT22;34178;50.904;11.560;2023-08-21T03:08:03;19.20;99.90
48376;DHT22;34178;50.904;11.560;2023-08-21T03:10:29;19.20;99.90
48376;DHT22;34178;50.904;11.560;2023-08-21T03:12:59;19.20;99.90
48376;DHT22;34178;50.904;11.560;2023-08-21T03:15:24;19.20;99.90
48376;DHT22;34178;50.904;11.560;2023-08-21T03:17:50;19.20;99.90
48376;DHT22;34178;50.904;11.560;2023-08-21T03:20:16;19.20;99.90
48376;DHT22;34178;50.904;11.560;2023-08-21T03:22:43;19.30;99.90
48376;DHT22;34178;50.904;11.560;2023-08-21T03:25:09;19.30;99.90
48376;DHT22;34178;50.904;11.560;2023-08-21T03:27:35;19.30;99.90
48376;DHT22;34178;50.904;11.560;2023-08-21T03:30:05;19.30;99.90
48376;DHT22;34178;50.904;11.560;2023-08-21T03:32:32;19.30;99.90
48376;DHT22;34178;50.904;11.560;2023-08-21T03:34:58;19.20;99.90
48376;DHT22;34178;50.904;11.560;2023-08-21T03:37:24;19.20;99.90
48376;DHT22;34178;50.904;11.560;2023-08-21T03:39:49;19.10;99.90
48376;DHT22;34178;50.904;11.560;2023-08-21T03:42:15;19.10;99.90
48376;DHT22;34178;50.904;11.560;2023-08-21T03:44:41;19.00;99.90
48376;DHT22;34178;50.904;11.560;2023-08-21T03:47:06;19.00;99.90
48376;DHT22;34178;50.904;11.560;2023-08-21T03:49:32;19.00;99.90
48376;DHT22;34178;50.904;11.560;2023-08-21T03:51:58;19.00;99.90
48376;DHT22;34178;50.904;11.560;2023-08-21T03:54:23;19.00;99.90
48376;DHT22;34178;50.904;11.560;2023-08-21T03:56:49;19.10;99.90
48376;DHT22;34178;50.904;11.560;2023-08-21T03:59:14;19.10;99.90
48376;DHT22;34178;50.904;11.560;2023-08-21T04:01:40;19.10;99.90
48376;DHT22;34178;50.904;11.560;2023-08-21T04:04:06;19.20;99.90
48376;DHT22;34178;50.904;11.560;2023-08-21T04:06:31;19.10;99.90
48376;DHT22;34178;50.904;11.560;2023-08-21T04:08:57;19.10;99.90
48376;DHT22;34178;50.904;11.560;2023-08-21T04:11:22;19.10;99.90
48376;DHT22;34178;50.904;11.560;2023-08-21T04:13:48;19.00;99.90
48376;DHT22;34178;50.904;11.560;2023-08-21T04:16:14;19.00;99.90
48376;DHT22;34178;50.904;11.560;2023-08-21T04:18:40;19.00;99.90
48376;DHT22;34178;50.904;11.560;2023-08-21T04:21:05;19.00;99.90
48376;DHT22;34178;50.904;11.560;2023-08-21T04:23:31;19.00;99.90
48376;DHT22;34178;50.904;11.560;2023-08-21T04:26:04;19.00;99.90
48376;DHT22;34178;50.904;11.560;2023-08-21T04:28:30;18.90;99.90
48376;DHT22;34178;50.904;11.560;2023-08-21T04:30:56;18.90;99.90
48376;DHT22;34178;50.904;11.560;2023-08-21T04:33:27;18.90;99.90
48376;DHT22;34178;50.904;11.560;2023-08-21T04:35:53;18.90;99.90
48376;DHT22;34178;50.904;11.560;2023-08-21T04:38:19;19.00;99.90
48376;DHT22;34178;50.904;11.560;2023-08-21T04:40:44;19.00;99.90
48376;DHT22;34178;50.904;11.560;2023-08-21T04:43:10;19.10;99.90
48376;DHT22;34178;50.904;11.560;2023-08-21T04:45:36;19.20;99.90
48376;DHT22;34178;50.904;11.560;2023-08-21T04:48:04;19.30;99.90
48376;DHT22;34178;50.904;11.560;2023-08-21T04:50:30;19.30;99.90
48376;DHT22;34178;50.904;11.560;2023-08-21T04:52:55;19.30;99.90
48376;DHT22;34178;50.904;11.560;2023-08-21T04:55:21;19.40;99.90
48376;DHT22;34178;50.904;11.560;2023-08-21T04:57:47;19.40;99.90
48376;DHT22;34178;50.904;11.560;2023-08-21T05:00:13;19.30;99.90
48376;DHT22;34178;50.904;11.560;2023-08-21T05:02:40;19.30;99.90
48376;DHT22;34178;50.904;11.560;2023-08-21T05:05:06;19.40;99.90
48376;DHT22;34178;50.904;11.560;2023-08-21T05:07:32;19.40;99.90
48376;DHT22;34178;50.904;11.560;2023-08-21T05:10:01;19.40;99.90
48376;DHT22;34178;50.904;11.560;2023-08-21T05:12:27;19.40;99.90
48376;DHT22;34178;50.904;11.560;2023-08-21T05:14:53;19.40;99.90
48376;DHT22;34178;50.904;11.560;2023-08-21T05:17:19;19.50;99.90
48376;DHT22;34178;50.904;11.560;2023-08-21T05:19:45;19.50;99.90
48376;DHT22;34178;50.904;11.560;2023-08-21T05:22:10;19.60;99.90
48376;DHT22;34178;50.904;11.560;2023-08-21T05:24:36;19.60;99.90
48376;DHT22;34178;50.904;11.560;2023-08-21T05:27:02;19.60;99.90
48376;DHT22;34178;50.904;11.560;2023-08-21T05:29:27;19.50;99.90
48376;DHT22;34178;50.904;11.560;2023-08-21T05:31:53;19.50;99.90
48376;DHT22;34178;50.904;11.560;2023-08-21T05:34:18;19.60;99.90
48376;DHT22;34178;50.904;11.560;2023-08-21T05:36:44;19.70;99.90
48376;DHT22;34178;50.904;11.560;2023-08-21T05:39:10;19.70;99.90
48376;DHT22;34178;50.904;11.560;2023-08-21T05:41:35;19.80;99.90
48376;DHT22;34178;50.904;11.560;2023-08-21T05:44:02;19.90;99.90
48376;DHT22;34178;50.904;11.560;2023-08-21T05:46:28;20.00;99.90
48376;DHT22;34178;50.904;11.560;2023-08-21T05:48:53;20.10;99.90
48376;DHT22;34178;50.904;11.560;2023-08-21T05:51:19;20.30;99.90
48376;DHT22;34178;50.904;11.560;2023-08-21T05:53:44;20.30;99.90
48376;DHT22;34178;50.904;11.560;2023-08-21T05:56:10;20.40;99.90
48376;DHT22;34178;50.904;11.560;2023-08-21T05:58:36;20.50;99.90
48376;DHT22;34178;50.904;11.560;2023-08-21T06:01:01;20.50;99.90
48376;DHT22;34178;50.904;11.560;2023-08-21T06:03:27;20.60;99.90
48376;DHT22;34178;50.904;11.560;2023-08-21T06:05:53;20.70;99.90
48376;DHT22;34178;50.904;11.560;2023-08-21T06:08:18;20.80;99.90
48376;DHT22;34178;50.904;11.560;2023-08-21T06:10:44;20.80;99.90
48376;DHT22;34178;50.904;11.560;2023-08-21T06:13:09;20.90;99.90
48376;DHT22;34178;50.904;11.560;2023-08-21T06:15:35;21.00;99.90
48376;DHT22;34178;50.904;11.560;2023-08-21T06:18:01;21.20;99.90
48376;DHT22;34178;50.904;11.560;2023-08-21T06:20:27;21.30;99.90
48376;DHT22;34178;50.904;11.560;2023-08-21T06:22:52;21.40;99.90
48376;DHT22;34178;50.904;11.560;2023-08-21T06:25:18;21.60;99.90
48376;DHT22;34178;50.904;11.560;2023-08-21T06:27:45;21.70;99.90
48376;DHT22;34178;50.904;11.560;2023-08-21T06:30:10;21.70;99.90
48376;DHT22;34178;50.904;11.560;2023-08-21T06:32:36;21.80;99.90
48376;DHT22;34178;50.904;11.560;2023-08-21T06:35:02;21.90;99.90
48376;DHT22;34178;50.904;11.560;2023-08-21T06:37:27;22.10;99.90
48376;DHT22;34178;50.904;11.560;2023-08-21T06:39:53;22.20;99.90
48376;DHT22;34178;50.904;11.560;2023-08-21T06:42:19;22.30;99.90
48376;DHT22;34178;50.904;11.560;2023-08-21T06:44:44;22.40;99.90
48376;DHT22;34178;50.904;11.560;2023-08-21T06:47:10;22.40;99.90
48376;DHT22;34178;50.904;11.560;2023-08-21T06:49:36;22.40;99.90
48376;DHT22;34178;50.904;11.560;2023-08-21T06:52:01;22.50;99.90
48376;DHT22;34178;50.904;11.560;2023-08-21T06:54:28;22.50;99.90
48376;DHT22;34178;50.904;11.560;2023-08-21T06:56:53;22.50;99.90
48376;DHT22;34178;50.904;11.560;2023-08-21T06:59:19;22.40;99.90
48376;DHT22;34178;50.904;11.560;2023-08-21T07:01:45;22.40;99.90
48376;DHT22;34178;50.904;11.560;2023-08-21T07:04:10;22.50;99.90
48376;DHT22;34178;50.904;11.560;2023-08-21T07:06:36;22.60;99.90
48376;DHT22;34178;50.904;11.560;2023-08-21T07:09:02;22.70;99.90
48376;DHT22;34178;50.904;11.560;2023-08-21T07:11:27;22.70;99.90
48376;DHT22;34178;50.904;11.560;2023-08-21T07:13:53;22.80;99.90
48376;DHT22;34178;50.904;11.560;2023-08-21T07:16:18;22.80;99.90
48376;DHT22;34178;50.904;11.560;2023-08-21T07:18:44;22.90;99.90
48376;DHT22;34178;50.904;11.560;2023-08-21T07:21:10;22.90;99.90
48376;DHT22;34178;50.904;11.560;2023-08-21T07:23:35;23.00;99.90
48376;DHT22;34178;50.904;11.560;2023-08-21T07:26:01;23.00;99.90
48376;DHT22;34178;50.904;11.560;2023-08-21T07:28:27;23.00;99.90
48376;DHT22;34178;50.904;11.560;2023-08-21T07:30:57;23.00;99.90
48376;DHT22;34178;50.904;11.560;2023-08-21T07:33:23;23.10;99.90
48376;DHT22;34178;50.904;11.560;2023-08-21T07:36:03;23.10;99.90
48376;DHT22;34178;50.904;11.560;2023-08-21T07:38:31;23.20;99.90
48376;DHT22;34178;50.904;11.560;2023-08-21T07:41:08;23.20;99.90
48376;DHT22;34178;50.904;11.560;2023-08-21T07:43:36;23.30;99.90
48376;DHT22;34178;50.904;11.560;2023-08-21T07:46:06;23.40;99.90
48376;DHT22;34178;50.904;11.560;2023-08-21T07:48:32;23.40;99.90
48376;DHT22;34178;50.904;11.560;2023-08-21T07:50:58;23.50;99.90
48376;DHT22;34178;50.904;11.560;2023-08-21T07:53:25;23.50;99.90
48376;DHT22;34178;50.904;11.560;2023-08-21T07:55:51;23.60;99.90
48376;DHT22;34178;50.904;11.560;2023-08-21T07:58:17;23.70;99.90
48376;DHT22;34178;50.904;11.560;2023-08-21T08:00:43;23.70;99.90
48376;DHT22;34178;50.904;11.560;2023-08-21T08:03:09;23.80;99.90
48376;DHT22;34178;50.904;11.560;2023-08-21T08:05:36;23.80;99.90
48376;DHT22;34178;50.904;11.560;2023-08-21T08:08:02;23.90;99.90
48376;DHT22;34178;50.904;11.560;2023-08-21T08:10:27;24.00;99.90
48376;DHT22;34178;50.904;11.560;2023-08-21T08:12:53;24.10;99.90
48376;DHT22;34178;50.904;11.560;2023-08-21T08:15:20;24.10;99.90
48376;DHT22;34178;50.904;11.560;2023-08-21T08:17:45;24.10;99.90
48376;DHT22;34178;50.904;11.560;2023-08-21T08:20:12;24.20;99.90
48376;DHT22;34178;50.904;11.560;2023-08-21T08:22:37;24.20;99.90
48376;DHT22;34178;50.904;11.560;2023-08-21T08:25:04;24.30;99.90
48376;DHT22;34178;50.904;11.560;2023-08-21T08:27:31;24.30;99.90
48376;DHT22;34178;50.904;11.560;2023-08-21T08:29:58;24.40;99.90
48376;DHT22;34178;50.904;11.560;2023-08-21T08:32:23;24.40;99.90
48376;DHT22;34178;50.904;11.560;2023-08-21T08:34:49;24.50;99.90
48376;DHT22;34178;50.904;11.560;2023-08-21T08:37:15;24.60;99.90
48376;DHT22;34178;50.904;11.560;2023-08-21T08:39:40;24.60;99.90
48376;DHT22;34178;50.904;11.560;2023-08-21T08:42:06;24.60;99.90
48376;DHT22;34178;50.904;11.560;2023-08-21T08:44:35;24.80;99.90
48376;DHT22;34178;50.904;11.560;2023-08-21T08:47:03;24.80;99.90
48376;DHT22;34178;50.904;11.560;2023-08-21T08:49:29;24.80;99.90
48376;DHT22;34178;50.904;11.560;2023-08-21T08:51:55;24.90;99.90
48376;DHT22;34178;50.904;11.560;2023-08-21T08:54:24;24.90;99.90
48376;DHT22;34178;50.904;11.560;2023-08-21T08:56:51;24.90;99.90
48376;DHT22;34178;50.904;11.560;2023-08-21T08:59:17;25.00;99.90
48376;DHT22;34178;50.904;11.560;2023-08-21T09:01:43;25.10;99.90
48376;DHT22;34178;50.904;11.560;2023-08-21T09:04:09;25.10;99.90
48376;DHT22;34178;50.904;11.560;2023-08-21T09:06:35;25.20;99.90
48376;DHT22;34178;50.904;11.560;2023-08-21T09:09:01;25.30;99.90
48376;DHT22;34178;50.904;11.560;2023-08-21T09:11:27;25.30;99.90
48376;DHT22;34178;50.904;11.560;2023-08-21T09:13:54;25.40;99.90
48376;DHT22;34178;50.904;11.560;2023-08-21T09:16:21;25.50;99.90
48376;DHT22;34178;50.904;11.560;2023-08-21T09:18:48;25.50;99.90
48376;DHT22;34178;50.904;11.560;2023-08-21T09:21:18;25.60;99.90
48376;DHT22;34178;50.904;11.560;2023-08-21T09:23:45;25.70;99.90
48376;DHT22;34178;50.904;11.560;2023-08-21T09:26:20;25.70;99.90
48376;DHT22;34178;50.904;11.560;2023-08-21T09:28:48;25.80;99.90
48376;DHT22;34178;50.904;11.560;2023-08-21T09:31:13;25.90;99.90
48376;DHT22;34178;50.904;11.560;2023-08-21T09:33:40;25.90;99.90
48376;DHT22;34178;50.904;11.560;2023-08-21T09:36:06;26.00;99.90
48376;DHT22;34178;50.904;11.560;2023-08-21T09:38:34;26.10;99.90
48376;DHT22;34178;50.904;11.560;2023-08-21T09:41:00;26.10;99.90
48376;DHT22;34178;50.904;11.560;2023-08-21T09:43:26;26.20;99.90
48376;DHT22;34178;50.904;11.560;2023-08-21T09:45:55;26.20;99.90
48376;DHT22;34178;50.904;11.560;2023-08-21T09:48:27;26.30;99.90
48376;DHT22;34178;50.904;11.560;2023-08-21T09:50:53;26.40;99.90
48376;DHT22;34178;50.904;11.560;2023-08-21T09:53:21;26.50;99.90
48376;DHT22;34178;50.904;11.560;2023-08-21T09:55:51;26.60;99.90
48376;DHT22;34178;50.904;11.560;2023-08-21T09:58:19;26.60;99.90
48376;DHT22;34178;50.904;11.560;2023-08-21T10:00:45;26.70;99.90
48376;DHT22;34178;50.904;11.560;2023-08-21T10:03:14;26.80;99.90
48376;DHT22;34178;50.904;11.560;2023-08-21T10:05:41;26.80;99.90
48376;DHT22;34178;50.904;11.560;2023-08-21T10:08:07;26.90;99.90
48376;DHT22;34178;50.904;11.560;2023-08-21T10:10:37;27.00;99.90
48376;DHT22;34178;50.904;11.560;2023-08-21T10:13:04;27.00;99.90
48376;DHT22;34178;50.904;11.560;2023-08-21T10:15:31;27.10;99.90
48376;DHT22;34178;50.904;11.560;2023-08-21T10:20:45;27.20;99.90
48376;DHT22;34178;50.904;11.560;2023-08-21T10:23:27;27.20;99.90
48376;DHT22;34178;50.904;11.560;2023-08-21T10:26:01;27.20;99.90
48376;DHT22;34178;50.904;11.560;2023-08-21T10:32:02;27.30;99.90
48376;DHT22;34178;50.904;11.560;2023-08-21T10:34:35;27.40;99.90
48376;DHT22;34178;50.904;11.560;2023-08-21T10:37:07;27.50;99.90
48376;DHT22;34178;50.904;11.560;2023-08-21T10:39:33;27.50;99.90
48376;DHT22;34178;50.904;11.560;2023-08-21T10:49:53;27.90;99.90
48376;DHT22;34178;50.904;11.560;2023-08-21T10:52:38;28.00;99.90
48376;DHT22;34178;50.904;11.560;2023-08-21T10:55:07;28.10;99.90
48376;DHT22;34178;50.904;11.560;2023-08-21T10:57:35;28.10;99.90
48376;DHT22;34178;50.904;11.560;2023-08-21T11:00:05;28.20;99.90
48376;DHT22;34178;50.904;11.560;2023-08-21T11:02:39;28.30;99.90
48376;DHT22;34178;50.904;11.560;2023-08-21T11:05:05;28.30;99.90
48376;DHT22;34178;50.904;11.560;2023-08-21T11:10:09;28.30;99.90
48376;DHT22;34178;50.904;11.560;2023-08-21T11:12:35;28.30;99.90
48376;DHT22;34178;50.904;11.560;2023-08-21T11:15:01;28.40;99.90
48376;DHT22;34178;50.904;11.560;2023-08-21T11:17:27;28.50;99.90
48376;DHT22;34178;50.904;11.560;2023-08-21T11:19:53;28.60;99.90
48376;DHT22;34178;50.904;11.560;2023-08-21T11:22:18;28.70;99.90
48376;DHT22;34178;50.904;11.560;2023-08-21T11:24:46;28.70;99.90
48376;DHT22;34178;50.904;11.560;2023-08-21T11:27:14;28.60;99.90
48376;DHT22;34178;50.904;11.560;2023-08-21T11:29:42;28.60;99.90
48376;DHT22;34178;50.904;11.560;2023-08-21T11:32:12;28.70;99.90
48376;DHT22;34178;50.904;11.560;2023-08-21T11:34:39;29.00;99.90
48376;DHT22;34178;50.904;11.560;2023-08-21T11:37:05;29.00;99.90
48376;DHT22;34178;50.904;11.560;2023-08-21T11:39:50;29.10;99.90
48376;DHT22;34178;50.904;11.560;2023-08-21T11:42:37;29.30;99.90
48376;DHT22;34178;50.904;11.560;2023-08-21T11:45:03;29.50;99.90
48376;DHT22;34178;50.904;11.560;2023-08-21T11:47:34;29.60;99.90
48376;DHT22;34178;50.904;11.560;2023-08-21T11:50:07;29.70;99.70
48376;DHT22;34178;50.904;11.560;2023-08-21T11:52:36;29.70;99.30
48376;DHT22;34178;50.904;11.560;2023-08-21T11:55:07;29.70;99.10
48376;DHT22;34178;50.904;11.560;2023-08-21T11:57:34;29.70;98.70
48376;DHT22;34178;50.904;11.560;2023-08-21T12:00:00;29.80;99.90
48376;DHT22;34178;50.904;11.560;2023-08-21T12:02:27;30.00;99.50
48376;DHT22;34178;50.904;11.560;2023-08-21T12:05:04;30.20;98.70
48376;DHT22;34178;50.904;11.560;2023-08-21T12:07:33;30.20;97.70
48376;DHT22;34178;50.904;11.560;2023-08-21T12:09:59;30.40;98.40
48376;DHT22;34178;50.904;11.560;2023-08-21T12:12:25;30.50;98.20
48376;DHT22;34178;50.904;11.560;2023-08-21T12:14:51;30.60;99.50
48376;DHT22;34178;50.904;11.560;2023-08-21T12:17:16;30.80;97.60
48376;DHT22;34178;50.904;11.560;2023-08-21T12:19:42;30.90;97.60
48376;DHT22;34178;50.904;11.560;2023-08-21T12:22:09;31.10;98.00
48376;DHT22;34178;50.904;11.560;2023-08-21T12:24:35;31.20;98.70
48376;DHT22;34178;50.904;11.560;2023-08-21T12:27:03;31.40;97.50
48376;DHT22;34178;50.904;11.560;2023-08-21T12:29:29;31.70;97.20
48376;DHT22;34178;50.904;11.560;2023-08-21T12:31:54;32.30;96.90
48376;DHT22;34178;50.904;11.560;2023-08-21T12:34:20;33.70;96.80
48376;DHT22;34178;50.904;11.560;2023-08-21T12:36:46;35.00;95.50
48376;DHT22;34178;50.904;11.560;2023-08-21T12:39:11;36.10;92.90
48376;DHT22;34178;50.904;11.560;2023-08-21T12:41:37;36.20;91.10
48376;DHT22;34178;50.904;11.560;2023-08-21T12:44:03;35.50;92.10
48376;DHT22;34178;50.904;11.560;2023-08-21T12:46:29;34.50;92.30
48376;DHT22;34178;50.904;11.560;2023-08-21T12:48:58;33.60;92.40
48376;DHT22;34178;50.904;11.560;2023-08-21T12:51:27;32.80;93.20
48376;DHT22;34178;50.904;11.560;2023-08-21T12:53:52;32.30;93.70
48376;DHT22;34178;50.904;11.560;2023-08-21T12:56:18;31.80;93.70
48376;DHT22;34178;50.904;11.560;2023-08-21T12:58:45;31.40;94.70
48376;DHT22;34178;50.904;11.560;2023-08-21T13:01:10;31.20;94.90
48376;DHT22;34178;50.904;11.560;2023-08-21T13:03:37;31.20;95.90
48376;DHT22;34178;50.904;11.560;2023-08-21T13:06:03;31.90;95.00
48376;DHT22;34178;50.904;11.560;2023-08-21T13:08:29;33.00;94.30
48376;DHT22;34178;50.904;11.560;2023-08-21T13:10:55;34.00;94.40
48376;DHT22;34178;50.904;11.560;2023-08-21T13:13:20;35.10;93.30
48376;DHT22;34178;50.904;11.560;2023-08-21T13:15:46;36.20;91.90
48376;DHT22;34178;50.904;11.560;2023-08-21T13:18:12;37.00;91.30
48376;DHT22;34178;50.904;11.560;2023-08-21T13:20:41;37.50;88.60
48376;DHT22;34178;50.904;11.560;2023-08-21T13:23:06;37.90;87.10
48376;DHT22;34178;50.904;11.560;2023-08-21T13:25:33;38.60;86.70
48376;DHT22;34178;50.904;11.560;2023-08-21T13:28:01;39.20;85.90
48376;DHT22;34178;50.904;11.560;2023-08-21T13:30:27;39.40;83.70
48376;DHT22;34178;50.904;11.560;2023-08-21T13:32:53;39.00;81.30
48376;DHT22;34178;50.904;11.560;2023-08-21T13:35:19;39.20;84.00
48376;DHT22;34178;50.904;11.560;2023-08-21T13:37:46;39.90;80.60
48376;DHT22;34178;50.904;11.560;2023-08-21T13:40:12;40.20;79.00
48376;DHT22;34178;50.904;11.560;2023-08-21T13:42:43;40.40;80.20
48376;DHT22;34178;50.904;11.560;2023-08-21T13:45:13;39.30;77.60
48376;DHT22;34178;50.904;11.560;2023-08-21T13:47:44;38.60;77.10
48376;DHT22;34178;50.904;11.560;2023-08-21T13:50:10;38.80;79.00
48376;DHT22;34178;50.904;11.560;2023-08-21T13:52:36;39.60;77.20
48376;DHT22;34178;50.904;11.560;2023-08-21T13:55:04;40.40;73.70
48376;DHT22;34178;50.904;11.560;2023-08-21T13:57:30;40.90;73.10
48376;DHT22;34178;50.904;11.560;2023-08-21T14:00:00;41.40;70.70
48376;DHT22;34178;50.904;11.560;2023-08-21T14:02:26;41.80;71.90
48376;DHT22;34178;50.904;11.560;2023-08-21T14:04:52;42.30;71.50
48376;DHT22;34178;50.904;11.560;2023-08-21T14:07:18;42.80;70.80
48376;DHT22;34178;50.904;11.560;2023-08-21T14:09:43;42.60;68.50
48376;DHT22;34178;50.904;11.560;2023-08-21T14:12:09;42.70;68.00
48376;DHT22;34178;50.904;11.560;2023-08-21T14:14:35;42.80;67.40
48376;DHT22;34178;50.904;11.560;2023-08-21T14:17:02;42.70;67.90
48376;DHT22;34178;50.904;11.560;2023-08-21T14:19:29;42.80;68.40
48376;DHT22;34178;50.904;11.560;2023-08-21T14:21:57;43.30;68.30
48376;DHT22;34178;50.904;11.560;2023-08-21T14:24:22;43.10;64.80
48376;DHT22;34178;50.904;11.560;2023-08-21T14:26:48;42.30;66.30
48376;DHT22;34178;50.904;11.560;2023-08-21T14:29:14;41.60;67.70
48376;DHT22;34178;50.904;11.560;2023-08-21T14:31:39;41.10;66.20
48376;DHT22;34178;50.904;11.560;2023-08-21T14:34:05;40.90;71.10
48376;DHT22;34178;50.904;11.560;2023-08-21T14:36:30;41.40;69.50
48376;DHT22;34178;50.904;11.560;2023-08-21T14:38:56;42.50;67.30
48376;DHT22;34178;50.904;11.560;2023-08-21T14:41:22;43.50;68.00
48376;DHT22;34178;50.904;11.560;2023-08-21T14:43:47;44.00;66.00
48376;DHT22;34178;50.904;11.560;2023-08-21T14:46:13;44.60;65.20
48376;DHT22;34178;50.904;11.560;2023-08-21T14:48:39;44.80;64.10
48376;DHT22;34178;50.904;11.560;2023-08-21T14:51:04;45.20;64.70
48376;DHT22;34178;50.904;11.560;2023-08-21T14:53:30;45.80;64.00
48376;DHT22;34178;50.904;11.560;2023-08-21T14:55:56;46.00;62.10
48376;DHT22;34178;50.904;11.560;2023-08-21T14:58:22;46.10;62.90
48376;DHT22;34178;50.904;11.560;2023-08-21T15:00:49;46.00;61.20
48376;DHT22;34178;50.904;11.560;2023-08-21T15:03:14;45.70;62.80
48376;DHT22;34178;50.904;11.560;2023-08-21T15:05:40;45.60;62.00
48376;DHT22;34178;50.904;11.560;2023-08-21T15:08:06;46.40;59.70
48376;DHT22;34178;50.904;11.560;2023-08-21T15:10:32;45.00;60.50
48376;DHT22;34178;50.904;11.560;2023-08-21T15:12:57;42.80;62.20
48376;DHT22;34178;50.904;11.560;2023-08-21T15:15:23;43.10;63.20
48376;DHT22;34178;50.904;11.560;2023-08-21T15:17:48;44.00;64.40
48376;DHT22;34178;50.904;11.560;2023-08-21T15:20:14;45.60;63.20
48376;DHT22;34178;50.904;11.560;2023-08-21T15:22:41;47.30;60.50
48376;DHT22;34178;50.904;11.560;2023-08-21T15:25:08;48.60;59.90
48376;DHT22;34178;50.904;11.560;2023-08-21T15:27:34;49.60;59.80
48376;DHT22;34178;50.904;11.560;2023-08-21T15:30:00;50.30;56.90
48376;DHT22;34178;50.904;11.560;2023-08-21T15:32:26;50.70;57.50
48376;DHT22;34178;50.904;11.560;2023-08-21T15:34:51;50.30;58.00